Terminal Aerodrome Forecast
Issued by NWS

Home | Current Version | Previous Version | Text Only | Print | Product List | Glossary On
Versions: 1 2 3 4 5 6 7 8 9 10 11 12
000
FTUS44 KBMX 012300
TAFTCL
TAF
KTCL 012336Z 0200/0224 VRB05KT 5SM -RA BR OVC015
      TEMPO 0200/0202 BKN025 OVC050
     FM020300 14003KT 5SM -RA BR OVC007
     FM020900 VRB03KT 3SM -RA BR OVC004
     FM021500 03005KT 5SM -RA BR OVC007=

USA.gov is the U.S. government's official web portal to all federal, state and local government web resources and services.